createdAt,value
2024-04-17T00:01:38.979Z,46.66
2024-04-17T00:04:06.065Z,46.04
2024-04-17T00:06:32.865Z,45.75
2024-04-17T00:08:59.784Z,45.93
2024-04-17T00:11:26.442Z,45.71
2024-04-17T00:13:53.387Z,45.68
2024-04-17T00:16:20.106Z,45.56
2024-04-17T00:18:46.658Z,45.80
2024-04-17T00:21:13.701Z,45.47
2024-04-17T00:23:41.398Z,45.54
2024-04-17T00:26:08.017Z,46.07
2024-04-17T00:28:34.642Z,46.00
2024-04-17T00:31:03.606Z,46.45
2024-04-17T00:33:31.978Z,46.66
2024-04-17T00:35:59.062Z,47.08
2024-04-17T00:38:25.755Z,46.61
2024-04-17T00:40:52.542Z,47.16
2024-04-17T00:43:19.201Z,46.84
2024-04-17T00:45:45.777Z,46.88
2024-04-17T00:48:13.564Z,46.60
2024-04-17T00:50:40.550Z,46.43
2024-04-17T00:53:07.328Z,46.16
2024-04-17T00:55:34.011Z,46.49
2024-04-17T00:58:00.713Z,46.42
2024-04-17T01:00:29.837Z,46.68
2024-04-17T01:02:56.646Z,46.69
2024-04-17T01:05:23.576Z,46.71
2024-04-17T01:07:50.225Z,46.80
2024-04-17T01:10:16.787Z,47.12
2024-04-17T01:12:43.411Z,47.72
2024-04-17T01:15:09.992Z,47.19
2024-04-17T01:17:36.796Z,47.36
2024-04-17T01:20:04.634Z,47.32
2024-04-17T01:22:32.385Z,46.78
2024-04-17T01:24:59.436Z,47.37
2024-04-17T01:27:26.043Z,47.44
2024-04-17T01:29:53.375Z,46.99
2024-04-17T01:32:19.968Z,46.82
2024-04-17T01:34:47.678Z,47.08
2024-04-17T01:37:14.283Z,46.67
2024-04-17T01:39:40.869Z,46.56
2024-04-17T01:42:07.746Z,46.56
2024-04-17T01:44:34.561Z,47.14
2024-04-17T01:47:01.414Z,47.16
2024-04-17T01:49:28.304Z,47.25
2024-04-17T01:51:54.921Z,47.65
2024-04-17T01:54:21.530Z,47.77
2024-04-17T01:56:48.620Z,46.72
2024-04-17T01:59:15.958Z,46.73
2024-04-17T02:01:42.673Z,47.07
2024-04-17T02:04:09.335Z,46.36
2024-04-17T02:06:36.056Z,47.60
2024-04-17T02:09:02.699Z,47.76
2024-04-17T02:11:29.294Z,47.37
2024-04-17T02:13:55.993Z,46.73
2024-04-17T02:16:22.622Z,47.17
2024-04-17T02:18:49.252Z,47.40
2024-04-17T02:21:15.949Z,46.79
2024-04-17T02:23:42.579Z,47.05
2024-04-17T02:26:13.261Z,46.79
2024-04-17T02:28:40.250Z,46.05
2024-04-17T02:31:06.995Z,45.17
2024-04-17T02:33:33.658Z,46.64
2024-04-17T02:36:01.286Z,46.20
2024-04-17T02:38:28.196Z,46.40
2024-04-17T02:40:54.946Z,47.03
2024-04-17T02:43:21.639Z,46.50
2024-04-17T02:45:49.282Z,46.15
2024-04-17T02:48:15.916Z,48.88
2024-04-17T02:50:42.553Z,47.59
2024-04-17T02:53:09.260Z,48.87
2024-04-17T02:55:36.031Z,48.06
2024-04-17T02:58:02.679Z,48.21
2024-04-17T03:00:29.455Z,47.65
2024-04-17T03:02:56.325Z,47.62
2024-04-17T03:05:23.177Z,48.51
2024-04-17T03:07:49.852Z,48.30
2024-04-17T03:10:17.799Z,47.92
2024-04-17T03:12:44.472Z,47.06
2024-04-17T03:15:13.477Z,46.29
2024-04-17T03:17:40.800Z,46.27
2024-04-17T03:20:09.967Z,46.01
2024-04-17T03:22:36.781Z,47.62
2024-04-17T03:25:03.417Z,47.89
2024-04-17T03:27:30.028Z,48.19
2024-04-17T03:29:56.728Z,47.50
2024-04-17T03:32:23.294Z,46.98
2024-04-17T03:34:49.963Z,46.73
2024-04-17T03:37:22.082Z,46.73
2024-04-17T03:39:49.355Z,47.28
2024-04-17T03:42:17.373Z,47.13
2024-04-17T03:44:45.305Z,46.80
2024-04-17T03:47:12.353Z,46.77
2024-04-17T03:49:39.049Z,46.00
2024-04-17T03:52:05.988Z,46.36
2024-04-17T03:54:32.744Z,46.69
2024-04-17T03:57:01.880Z,47.07
2024-04-17T03:59:28.446Z,46.75
2024-04-17T04:01:55.386Z,47.36
2024-04-17T04:04:22.092Z,47.58
2024-04-17T04:06:52.489Z,46.88
2024-04-17T04:09:19.832Z,46.85
2024-04-17T04:11:46.479Z,48.13
2024-04-17T04:14:13.499Z,47.85
2024-04-17T04:16:40.167Z,48.74
2024-04-17T04:19:07.385Z,48.53
2024-04-17T04:21:34.296Z,48.36
2024-04-17T04:24:01.207Z,48.71
2024-04-17T04:26:27.850Z,49.26
2024-04-17T04:28:54.509Z,49.70
2024-04-17T04:31:21.158Z,50.39
2024-04-17T04:33:47.831Z,50.83
2024-04-17T04:36:14.574Z,50.36
2024-04-17T04:38:41.159Z,52.71
2024-04-17T04:41:10.208Z,52.53
2024-04-17T04:43:36.777Z,52.93
2024-04-17T04:46:03.384Z,53.11
2024-04-17T04:48:30.081Z,53.10
2024-04-17T04:50:56.754Z,51.97
2024-04-17T04:53:23.315Z,52.85
2024-04-17T04:55:50.344Z,53.72
2024-04-17T04:58:16.889Z,53.19
2024-04-17T05:00:43.694Z,52.37
2024-04-17T05:03:10.411Z,52.84
2024-04-17T05:05:37.499Z,52.80
2024-04-17T05:08:04.144Z,52.45
2024-04-17T05:10:30.954Z,51.96
2024-04-17T05:12:57.731Z,51.00
2024-04-17T05:15:24.334Z,51.07
2024-04-17T05:17:51.179Z,51.14
2024-04-17T05:20:17.836Z,50.53
2024-04-17T05:22:44.526Z,51.64
2024-04-17T05:25:11.237Z,50.91
2024-04-17T05:27:37.856Z,50.93
2024-04-17T05:30:05.460Z,50.79
2024-04-17T05:32:32.080Z,50.74
2024-04-17T05:34:58.828Z,50.69
2024-04-17T05:37:26.413Z,51.08
2024-04-17T05:39:53.541Z,50.40
2024-04-17T05:42:20.199Z,50.91
2024-04-17T05:44:46.715Z,51.56
2024-04-17T05:47:13.809Z,51.43
2024-04-17T05:49:40.724Z,50.60
2024-04-17T05:52:07.274Z,50.61
2024-04-17T05:54:33.846Z,50.34
2024-04-17T05:57:01.531Z,50.16
2024-04-17T06:05:09.811Z,51.23
2024-04-17T06:07:39.625Z,50.81
2024-04-17T06:10:06.383Z,51.34
2024-04-17T06:12:33.003Z,50.76
2024-04-17T06:14:59.548Z,50.24
2024-04-17T06:17:26.217Z,49.44
2024-04-17T06:19:53.116Z,49.76
2024-04-17T06:22:22.852Z,51.32
2024-04-17T06:24:49.420Z,51.13
2024-04-17T06:27:20.936Z,50.48
2024-04-17T06:29:47.526Z,50.68
2024-04-17T06:32:14.909Z,49.25
2024-04-17T06:34:41.967Z,49.59
2024-04-17T06:42:48.540Z,49.37
2024-04-17T06:45:15.580Z,48.83
2024-04-17T06:47:42.401Z,49.23
2024-04-17T06:50:09.558Z,49.59
2024-04-17T06:52:36.235Z,48.56
2024-04-17T06:55:05.300Z,48.26
2024-04-17T06:57:31.888Z,48.28
2024-04-17T07:00:01.196Z,49.80
2024-04-17T07:02:27.903Z,49.44
2024-04-17T07:04:54.578Z,49.12
2024-04-17T07:07:21.204Z,48.68
2024-04-17T07:09:47.991Z,48.61
2024-04-17T07:12:15.034Z,48.34
2024-04-17T07:14:41.666Z,47.77
2024-04-17T07:17:09.552Z,48.12
2024-04-17T07:19:36.543Z,47.64
2024-04-17T07:22:03.764Z,48.11
2024-04-17T07:24:31.551Z,48.39
2024-04-17T07:26:58.499Z,47.79
2024-04-17T07:29:25.092Z,48.09
2024-04-17T07:31:52.148Z,48.41
2024-04-17T07:34:19.194Z,47.75
2024-04-17T07:36:46.961Z,47.37
2024-04-17T07:39:14.002Z,47.98
2024-04-17T07:41:41.022Z,47.07
2024-04-17T07:44:07.994Z,48.06
2024-04-17T07:46:34.617Z,47.74
2024-04-17T07:49:01.686Z,48.22
2024-04-17T07:51:28.375Z,48.46
2024-04-17T08:05:13.205Z,47.75
2024-04-17T08:07:40.996Z,48.32
2024-04-17T08:10:07.717Z,49.38
2024-04-17T08:12:36.439Z,49.73
2024-04-17T08:15:03.691Z,49.89
2024-04-17T08:17:30.534Z,49.13
2024-04-17T08:19:57.317Z,48.47
2024-04-17T08:22:24.058Z,48.63
2024-04-17T08:24:50.755Z,47.97
2024-04-17T08:27:17.330Z,48.21
2024-04-17T08:29:44.569Z,47.46
2024-04-17T08:32:12.271Z,47.86
2024-04-17T08:34:39.059Z,47.58
2024-04-17T08:37:05.729Z,47.46
2024-04-17T08:39:32.329Z,47.43
2024-04-17T08:41:58.967Z,47.36
2024-04-17T08:44:27.982Z,47.54
2024-04-17T08:46:55.522Z,47.38
2024-04-17T08:49:22.327Z,47.10
2024-04-17T08:51:49.908Z,46.38
2024-04-17T08:54:16.505Z,45.65
2024-04-17T08:56:43.148Z,46.33
2024-04-17T08:59:09.866Z,45.12
2024-04-17T09:01:36.524Z,45.68
2024-04-17T09:04:03.640Z,46.42
2024-04-17T09:06:30.300Z,45.88
2024-04-17T09:08:56.867Z,46.02
2024-04-17T09:11:24.708Z,45.56
2024-04-17T09:13:51.356Z,47.08
2024-04-17T09:16:17.944Z,47.18
2024-04-17T09:18:46.000Z,47.86
2024-04-17T09:21:12.625Z,48.94
2024-04-17T09:23:39.351Z,50.71
2024-04-17T09:26:07.431Z,50.83
2024-04-17T09:28:34.124Z,50.44
2024-04-17T09:31:01.115Z,49.35
2024-04-17T09:33:27.708Z,49.84
2024-04-17T09:35:56.182Z,49.78
2024-04-17T09:38:25.433Z,51.56
2024-04-17T09:40:52.036Z,51.86
2024-04-17T09:43:22.541Z,55.94
2024-04-17T09:45:54.880Z,55.74
2024-04-17T09:48:22.736Z,55.54
2024-04-17T09:50:49.388Z,55.66
2024-04-17T09:53:27.838Z,56.33
2024-04-17T09:56:03.621Z,55.64
2024-04-17T09:58:30.263Z,56.85
2024-04-17T10:00:57.884Z,56.19
2024-04-17T10:03:24.638Z,56.31
2024-04-17T10:05:51.250Z,55.89
2024-04-17T10:08:18.036Z,55.68
2024-04-17T10:10:44.701Z,55.75
2024-04-17T10:13:11.354Z,57.20
2024-04-17T10:15:37.958Z,56.88
2024-04-17T10:18:04.856Z,56.24
2024-04-17T10:20:31.970Z,54.99
2024-04-17T10:23:01.418Z,56.16
2024-04-17T10:27:57.998Z,56.63
2024-04-17T10:30:26.170Z,57.23
2024-04-17T10:32:55.646Z,57.05
2024-04-17T10:35:22.593Z,56.57
2024-04-17T10:37:52.876Z,57.05
2024-04-17T10:40:20.452Z,55.58
2024-04-17T10:42:47.250Z,56.36
2024-04-17T10:45:13.871Z,54.83
2024-04-17T10:47:40.539Z,54.11
2024-04-17T10:50:07.365Z,55.36
2024-04-17T10:52:34.207Z,55.79
2024-04-17T10:55:01.220Z,54.85
2024-04-17T10:57:28.202Z,54.32
2024-04-17T10:59:55.078Z,54.84
2024-04-17T11:02:21.637Z,54.59
2024-04-17T11:04:48.224Z,54.26
2024-04-17T11:07:22.532Z,52.40
2024-04-17T11:09:52.710Z,53.03
2024-04-17T11:12:19.786Z,53.29
2024-04-17T11:14:46.403Z,52.43
2024-04-17T11:17:13.382Z,51.58
2024-04-17T11:19:41.345Z,50.14
2024-04-17T11:22:07.955Z,52.08
2024-04-17T11:24:34.569Z,50.86
2024-04-17T11:27:01.435Z,50.30
2024-04-17T11:29:34.059Z,48.96
2024-04-17T11:32:07.905Z,48.97
2024-04-17T11:34:34.544Z,48.93
2024-04-17T11:37:04.332Z,49.25
2024-04-17T11:39:32.955Z,50.48
2024-04-17T11:42:00.935Z,49.80
2024-04-17T11:50:10.772Z,48.36
2024-04-17T11:52:37.813Z,47.15
2024-04-17T11:55:04.457Z,46.14
2024-04-17T11:57:31.614Z,45.55
2024-04-17T11:59:58.404Z,45.57
2024-04-17T12:02:24.949Z,46.14
2024-04-17T12:04:51.708Z,44.28
2024-04-17T12:07:18.395Z,43.22
2024-04-17T12:09:45.025Z,43.06
2024-04-17T12:12:11.913Z,43.04
2024-04-17T12:14:38.502Z,41.78
2024-04-17T12:17:05.129Z,42.41
2024-04-17T12:19:31.783Z,42.29
2024-04-17T12:21:58.344Z,42.55
2024-04-17T12:24:25.286Z,42.13
2024-04-17T12:26:52.869Z,42.72
2024-04-17T12:29:20.059Z,42.12
2024-04-17T12:31:54.519Z,42.65
2024-04-17T12:34:22.575Z,41.36
2024-04-17T12:36:49.442Z,41.40
2024-04-17T12:39:16.851Z,41.31
2024-04-17T12:41:43.538Z,39.96
2024-04-17T12:44:10.208Z,40.05
2024-04-17T12:46:37.083Z,40.10
2024-04-17T12:49:07.243Z,39.57
2024-04-17T12:51:34.815Z,39.59
2024-04-17T12:54:01.437Z,40.59
2024-04-17T12:56:30.609Z,40.68
2024-04-17T12:58:57.323Z,41.19
2024-04-17T13:01:24.024Z,40.94
2024-04-17T13:03:50.734Z,38.90
2024-04-17T13:06:22.904Z,38.23
2024-04-17T13:08:51.284Z,38.09
2024-04-17T13:14:18.383Z,39.40
2024-04-17T13:16:45.602Z,39.10
2024-04-17T13:19:12.551Z,39.75
2024-04-17T13:21:40.114Z,39.18
2024-04-17T13:24:07.417Z,39.75
2024-04-17T13:26:34.271Z,40.40
2024-04-17T13:29:00.893Z,40.25
2024-04-17T13:31:27.563Z,40.60
2024-04-17T13:33:54.194Z,39.44
2024-04-17T13:36:21.074Z,39.05
2024-04-17T13:38:47.750Z,38.80
2024-04-17T13:41:14.662Z,38.17
2024-04-17T13:43:41.800Z,38.33
2024-04-17T13:46:08.731Z,39.28
2024-04-17T13:48:35.835Z,37.93
2024-04-17T13:51:02.539Z,37.80
2024-04-17T13:53:32.440Z,37.74
2024-04-17T13:55:59.415Z,37.45
2024-04-17T13:58:26.027Z,38.07
2024-04-17T14:00:52.821Z,38.05
2024-04-17T14:03:19.726Z,38.14
2024-04-17T14:05:46.369Z,36.62
2024-04-17T14:08:13.178Z,35.77
2024-04-17T14:10:40.153Z,36.84
2024-04-17T14:13:08.871Z,36.52
2024-04-17T14:15:39.479Z,36.75
2024-04-17T14:18:07.346Z,37.20
2024-04-17T14:20:34.069Z,35.59
2024-04-17T14:23:01.111Z,36.32
2024-04-17T14:25:27.767Z,35.58
2024-04-17T14:27:54.452Z,34.82
2024-04-17T14:30:23.546Z,35.58
2024-04-17T14:32:50.240Z,35.14
2024-04-17T14:35:17.185Z,34.61
2024-04-17T14:37:44.420Z,33.67
2024-04-17T14:40:12.094Z,34.14
2024-04-17T14:42:38.756Z,32.24
2024-04-17T14:45:08.012Z,33.81
2024-04-17T14:47:35.366Z,33.88
2024-04-17T14:50:02.303Z,34.29
2024-04-17T14:55:21.064Z,35.23
2024-04-17T14:57:47.881Z,34.34
2024-04-17T15:00:14.528Z,34.57
2024-04-17T15:02:41.109Z,34.14
2024-04-17T15:05:15.277Z,32.91
2024-04-17T15:07:42.767Z,32.71
2024-04-17T15:10:09.666Z,31.91
2024-04-17T15:12:36.357Z,32.27
2024-04-17T15:15:06.038Z,32.76
2024-04-17T15:17:32.887Z,32.58
2024-04-17T15:20:00.863Z,32.41
2024-04-17T15:22:27.439Z,32.99
2024-04-17T15:24:55.071Z,33.30
2024-04-17T15:27:21.670Z,33.12
2024-04-17T15:32:32.819Z,33.42
2024-04-17T15:34:59.737Z,33.38
2024-04-17T15:37:31.504Z,33.90
2024-04-17T15:39:59.623Z,33.58
2024-04-17T15:42:26.469Z,33.62
2024-04-17T15:44:54.343Z,33.89
2024-04-17T15:47:23.569Z,34.15
2024-04-17T15:49:51.887Z,34.10
2024-04-17T15:52:19.002Z,34.76
2024-04-17T15:54:46.732Z,33.87
2024-04-17T15:57:13.788Z,33.08
2024-04-17T15:59:40.553Z,32.91
2024-04-17T16:02:10.237Z,35.00
2024-04-17T16:04:37.005Z,38.76
2024-04-17T16:07:06.301Z,39.96
2024-04-17T16:09:33.095Z,40.53
2024-04-17T16:12:01.039Z,40.56
2024-04-17T16:14:27.631Z,41.84
2024-04-17T16:16:54.508Z,41.51
2024-04-17T16:19:21.310Z,41.03
2024-04-17T16:21:48.242Z,41.24
2024-04-17T16:24:14.978Z,40.91
2024-04-17T16:26:41.623Z,40.54
2024-04-17T16:29:08.467Z,40.58
2024-04-17T16:31:35.161Z,41.54
2024-04-17T16:39:39.206Z,40.88
2024-04-17T16:42:06.642Z,40.75
2024-04-17T16:44:33.242Z,41.56
2024-04-17T16:46:59.993Z,41.84
2024-04-17T16:49:27.717Z,41.84
2024-04-17T16:51:54.950Z,42.73
2024-04-17T16:54:21.850Z,42.51
2024-04-17T16:56:48.646Z,42.49
2024-04-17T16:59:16.401Z,42.35
2024-04-17T17:01:43.032Z,43.46
2024-04-17T17:04:09.897Z,43.81
2024-04-17T17:06:39.444Z,43.28
2024-04-17T17:09:07.098Z,43.09
2024-04-17T17:11:33.938Z,43.11
2024-04-17T17:14:01.614Z,43.13
2024-04-17T17:16:28.633Z,44.00
2024-04-17T17:18:55.512Z,43.71
2024-04-17T17:21:22.269Z,43.63
2024-04-17T17:23:49.947Z,43.59
2024-04-17T17:26:17.649Z,43.70
2024-04-17T17:28:44.409Z,43.75
2024-04-17T17:31:11.226Z,44.27
2024-04-17T17:33:38.463Z,44.33
2024-04-17T17:36:06.183Z,44.30
2024-04-17T17:38:35.614Z,43.96
2024-04-17T17:41:05.246Z,43.67
2024-04-17T17:43:31.820Z,44.14
2024-04-17T17:45:58.564Z,43.72
2024-04-17T17:48:25.452Z,43.81
2024-04-17T17:50:52.263Z,43.31
2024-04-17T17:53:19.300Z,44.26
2024-04-17T17:55:46.871Z,44.23
2024-04-17T18:01:00.430Z,42.80
2024-04-17T18:03:27.887Z,43.00
2024-04-17T18:05:55.635Z,43.87
2024-04-17T18:08:22.535Z,43.84
2024-04-17T18:10:49.566Z,44.28
2024-04-17T18:13:16.340Z,43.07
2024-04-17T18:15:43.215Z,43.38
2024-04-17T18:18:10.184Z,43.27
2024-04-17T18:20:37.051Z,43.57
2024-04-17T18:23:03.852Z,43.13
2024-04-17T18:25:30.569Z,43.24
2024-04-17T18:27:58.088Z,42.63
2024-04-17T18:30:25.187Z,42.65
2024-04-17T18:32:52.036Z,42.35
2024-04-17T18:35:19.060Z,42.81
2024-04-17T18:37:45.822Z,42.82
2024-04-17T18:40:12.793Z,43.00
2024-04-17T18:42:39.527Z,45.33
2024-04-17T18:45:06.360Z,45.03
2024-04-17T18:47:33.139Z,44.77
2024-04-17T18:49:59.972Z,44.80
2024-04-17T18:52:29.443Z,44.44
2024-04-17T18:54:56.424Z,44.82
2024-04-17T19:00:04.272Z,44.96
2024-04-17T19:02:33.740Z,44.89
2024-04-17T19:05:00.638Z,45.96
2024-04-17T19:07:27.710Z,45.36
2024-04-17T19:09:55.562Z,45.23
2024-04-17T19:12:22.275Z,45.17
2024-04-17T19:14:49.854Z,44.74
2024-04-17T19:17:16.548Z,44.44
2024-04-17T19:19:43.278Z,44.66
2024-04-17T19:22:10.049Z,45.16
2024-04-17T19:24:38.083Z,46.28
2024-04-17T19:27:05.167Z,45.16
2024-04-17T19:29:46.227Z,45.80
2024-04-17T19:32:18.854Z,46.12
2024-04-17T19:34:45.743Z,45.57
2024-04-17T19:37:12.734Z,46.55
2024-04-17T19:39:43.950Z,46.03
2024-04-17T19:42:15.100Z,45.15
2024-04-17T19:44:48.404Z,45.08
2024-04-17T19:47:15.160Z,46.16
2024-04-17T19:49:41.879Z,45.86
2024-04-17T19:52:11.435Z,47.32
2024-04-17T19:54:40.011Z,46.75
2024-04-17T19:57:07.042Z,47.21
2024-04-17T19:59:35.721Z,47.51
2024-04-17T20:02:03.241Z,47.15
2024-04-17T20:04:31.360Z,47.44
2024-04-17T20:06:58.643Z,47.72
2024-04-17T20:09:26.238Z,47.69
2024-04-17T20:11:53.692Z,47.85
2024-04-17T20:14:20.544Z,46.90
2024-04-17T20:16:48.011Z,46.12
2024-04-17T20:19:14.971Z,46.31
2024-04-17T20:21:44.164Z,46.40
2024-04-17T20:24:10.927Z,47.22
2024-04-17T20:26:38.460Z,46.54
2024-04-17T20:29:07.781Z,46.27
2024-04-17T20:31:35.275Z,46.31
2024-04-17T20:34:02.047Z,47.49
2024-04-17T20:36:28.989Z,46.51
2024-04-17T20:38:55.805Z,46.89
2024-04-17T20:41:22.884Z,46.47
2024-04-17T20:43:49.606Z,46.32
2024-04-17T20:46:16.375Z,46.44
2024-04-17T20:48:43.549Z,45.99
2024-04-17T20:51:10.355Z,45.81
2024-04-17T20:53:37.794Z,45.18
2024-04-17T20:56:05.319Z,45.65
2024-04-17T20:58:32.155Z,45.45
2024-04-17T21:00:59.263Z,46.25
2024-04-17T21:03:26.060Z,45.73
2024-04-17T21:05:52.720Z,46.11
2024-04-17T21:08:19.461Z,46.02
2024-04-17T21:10:46.145Z,46.40
2024-04-17T21:13:12.784Z,45.68
2024-04-17T21:15:41.182Z,45.43
2024-04-17T21:18:10.531Z,45.19
2024-04-17T21:20:38.228Z,45.34
2024-04-17T21:23:07.877Z,45.47
2024-04-17T21:25:36.233Z,45.28
2024-04-17T21:28:03.542Z,45.71
2024-04-17T21:30:30.162Z,46.37
2024-04-17T21:32:59.415Z,47.08
2024-04-17T21:35:27.097Z,46.97
2024-04-17T21:37:54.248Z,46.30
2024-04-17T21:40:22.472Z,45.96
2024-04-17T21:42:52.408Z,45.96
2024-04-17T21:45:19.318Z,45.24
2024-04-17T21:47:46.597Z,45.35
2024-04-17T21:53:04.245Z,45.37
2024-04-17T21:55:30.924Z,45.31
2024-04-17T21:57:58.608Z,46.19
2024-04-17T22:00:25.610Z,46.12
2024-04-17T22:02:52.684Z,46.20
2024-04-17T22:05:22.300Z,46.20
2024-04-17T22:07:48.959Z,45.48
2024-04-17T22:10:15.570Z,44.89
2024-04-17T22:12:42.721Z,45.21
2024-04-17T22:15:09.762Z,44.72
2024-04-17T22:17:38.385Z,45.06
2024-04-17T22:20:04.944Z,45.14
2024-04-17T22:22:31.783Z,45.03
2024-04-17T22:24:58.763Z,44.62
2024-04-17T22:27:26.430Z,44.84
2024-04-17T22:29:53.353Z,44.66
2024-04-17T22:32:20.014Z,44.89
2024-04-17T22:34:46.880Z,44.85
2024-04-17T22:37:13.523Z,45.15
2024-04-17T22:39:51.974Z,45.59
2024-04-17T22:42:19.257Z,45.68
2024-04-17T22:44:46.389Z,46.05
2024-04-17T22:47:13.063Z,45.83
2024-04-17T22:49:42.995Z,45.86
2024-04-17T22:52:09.714Z,46.03
2024-04-17T22:54:36.633Z,45.40
2024-04-17T22:57:03.793Z,45.41
2024-04-17T22:59:30.378Z,45.06
2024-04-17T23:01:59.292Z,45.19
2024-04-17T23:04:26.134Z,45.54
2024-04-17T23:06:52.985Z,45.16
2024-04-17T23:09:22.111Z,44.93
2024-04-17T23:11:48.855Z,45.63
2024-04-17T23:14:16.098Z,45.44
2024-04-17T23:16:45.153Z,45.26
2024-04-17T23:19:17.048Z,45.80
2024-04-17T23:21:50.367Z,45.71
2024-04-17T23:24:17.190Z,45.35
2024-04-17T23:26:44.182Z,45.61
2024-04-17T23:29:10.830Z,46.15
2024-04-17T23:31:37.481Z,46.16
2024-04-17T23:34:04.118Z,47.20
2024-04-17T23:36:30.831Z,46.78
2024-04-17T23:38:59.230Z,46.77
2024-04-17T23:41:25.972Z,47.00
2024-04-17T23:43:53.547Z,47.17
2024-04-17T23:46:22.645Z,47.02
2024-04-17T23:48:49.710Z,46.70
2024-04-17T23:51:18.899Z,48.16
2024-04-17T23:53:48.789Z,47.91
2024-04-17T23:56:15.753Z,47.39
2024-04-17T23:58:42.379Z,47.07
